Accueil
METAR-TAF:

METAR-TAF

Aéroports :

Aéroport international Saint-Gall-Altenrhein

Saint-Gall, Suisse

latitude: 47-29-06N, longitude: 009-33-43E, altitude: 398 m

Observation

Le bulletin a été fait il y a 40 minutes, à 22:50 UTC
Vent 7 kt de ouest
Température 18°C
Humidité 77%
Pression 1009 hPa
Visibilité 10 km ou plus

METAR: LSZR 222250Z AUTO 27007KT 9999 NSC 18/14 Q1009

Heure: 01:30 (23:30 UTC)

Prévision

Le bulletin a été fait il y a 9 heures et 5 minutes, à 14:25 UTC
Prévision valable du 22 à 15 UTC au 22 à 24 UTC
Vent 5 kt de ouest
Visibilité 10 km ou plus
Quelques nuages à une hauteur de 6500 ft
Probabilité 30% :
Temporairement
du 22 à 15 UTC au 22 à 19 UTC
Nuages épars à une hauteur de 7000 ft, Cumulus congestus.
averses de pluie

TAF: LSZR 221425Z 2215/2224 28005KT 9999 FEW065 PROB30 TEMPO 2215/2219 SHRA SCT070TCU

Observations et prévisions météorologiques de plus de 4000 aéroports (messages METAR et TAF).

Les stations disponibles sont représentées par des disques jaunes et rouges sur la carte.

Passer la souris dessus pour voir le nom de la station.

Cliquer dessus pour voir les observations et prévisions météorologiques.

Pour changer de carte: cliquez sur les boutons verts avec une croix noire pour zoomer, sur le bouton vert avec un tiret pour effectuer un zoom arrière, ou sur les flèches vertes pour les cartes adjacentes.


METAR-TAF: